sensor_id;sensor_type;location;lat;lon;timestamp;P1;durP1;ratioP1;P2;durP2;ratioP2
59302;SDS011;45074;52.764;6.896;2023-06-10T00:01:36;10.88;;;5.22;;
59302;SDS011;45074;52.764;6.896;2023-06-10T00:04:02;8.45;;;4.90;;
59302;SDS011;45074;52.764;6.896;2023-06-10T00:06:29;11.35;;;5.10;;
59302;SDS011;45074;52.764;6.896;2023-06-10T00:09:03;9.60;;;4.97;;
59302;SDS011;45074;52.764;6.896;2023-06-10T00:11:30;9.30;;;5.28;;
59302;SDS011;45074;52.764;6.896;2023-06-10T00:13:57;8.32;;;4.80;;
59302;SDS011;45074;52.764;6.896;2023-06-10T00:16:23;9.25;;;4.90;;
59302;SDS011;45074;52.764;6.896;2023-06-10T00:18:50;9.15;;;5.43;;
59302;SDS011;45074;52.764;6.896;2023-06-10T00:21:16;10.30;;;5.28;;
59302;SDS011;45074;52.764;6.896;2023-06-10T00:23:42;11.20;;;5.38;;
59302;SDS011;45074;52.764;6.896;2023-06-10T00:26:08;9.50;;;5.28;;
59302;SDS011;45074;52.764;6.896;2023-06-10T00:28:35;10.82;;;5.40;;
59302;SDS011;45074;52.764;6.896;2023-06-10T00:31:01;11.02;;;5.32;;
59302;SDS011;45074;52.764;6.896;2023-06-10T00:33:29;9.20;;;5.07;;
59302;SDS011;45074;52.764;6.896;2023-06-10T00:35:55;9.18;;;5.10;;
59302;SDS011;45074;52.764;6.896;2023-06-10T00:38:21;9.75;;;5.57;;
59302;SDS011;45074;52.764;6.896;2023-06-10T00:40:47;10.32;;;5.25;;
59302;SDS011;45074;52.764;6.896;2023-06-10T00:43:13;9.73;;;5.40;;
59302;SDS011;45074;52.764;6.896;2023-06-10T00:45:39;10.88;;;5.53;;
59302;SDS011;45074;52.764;6.896;2023-06-10T00:48:05;11.55;;;5.55;;
59302;SDS011;45074;52.764;6.896;2023-06-10T00:50:32;10.45;;;5.30;;
59302;SDS011;45074;52.764;6.896;2023-06-10T00:52:59;9.35;;;5.60;;
59302;SDS011;45074;52.764;6.896;2023-06-10T00:55:25;10.13;;;5.43;;
59302;SDS011;45074;52.764;6.896;2023-06-10T00:57:52;10.00;;;5.40;;
59302;SDS011;45074;52.764;6.896;2023-06-10T01:00:19;11.27;;;5.60;;
59302;SDS011;45074;52.764;6.896;2023-06-10T01:02:45;11.23;;;5.78;;
59302;SDS011;45074;52.764;6.896;2023-06-10T01:05:11;10.27;;;5.70;;
59302;SDS011;45074;52.764;6.896;2023-06-10T01:10:29;9.48;;;5.05;;
59302;SDS011;45074;52.764;6.896;2023-06-10T01:13:00;9.32;;;5.13;;
59302;SDS011;45074;52.764;6.896;2023-06-10T01:15:28;8.63;;;5.38;;
59302;SDS011;45074;52.764;6.896;2023-06-10T01:18:02;8.60;;;5.20;;
59302;SDS011;45074;52.764;6.896;2023-06-10T01:20:33;12.05;;;5.65;;
59302;SDS011;45074;52.764;6.896;2023-06-10T01:23:01;11.18;;;5.57;;
59302;SDS011;45074;52.764;6.896;2023-06-10T01:25:29;11.10;;;5.60;;
59302;SDS011;45074;52.764;6.896;2023-06-10T01:28:02;12.45;;;6.25;;
59302;SDS011;45074;52.764;6.896;2023-06-10T01:30:59;10.68;;;6.13;;
59302;SDS011;45074;52.764;6.896;2023-06-10T01:33:41;11.50;;;5.85;;
59302;SDS011;45074;52.764;6.896;2023-06-10T01:36:11;11.18;;;6.10;;
59302;SDS011;45074;52.764;6.896;2023-06-10T01:38:42;11.27;;;6.28;;
59302;SDS011;45074;52.764;6.896;2023-06-10T01:41:09;9.52;;;6.10;;
59302;SDS011;45074;52.764;6.896;2023-06-10T01:43:39;10.73;;;5.75;;
59302;SDS011;45074;52.764;6.896;2023-06-10T01:46:05;12.10;;;5.95;;
59302;SDS011;45074;52.764;6.896;2023-06-10T01:48:32;11.18;;;6.38;;
59302;SDS011;45074;52.764;6.896;2023-06-10T01:50:58;11.70;;;6.13;;
59302;SDS011;45074;52.764;6.896;2023-06-10T01:53:24;11.77;;;6.57;;
59302;SDS011;45074;52.764;6.896;2023-06-10T01:55:50;10.48;;;6.53;;
59302;SDS011;45074;52.764;6.896;2023-06-10T01:58:16;12.38;;;7.28;;
59302;SDS011;45074;52.764;6.896;2023-06-10T02:00:42;12.77;;;6.68;;
59302;SDS011;45074;52.764;6.896;2023-06-10T02:03:08;14.38;;;7.30;;
59302;SDS011;45074;52.764;6.896;2023-06-10T02:05:34;11.73;;;6.70;;
59302;SDS011;45074;52.764;6.896;2023-06-10T02:08:00;11.48;;;6.47;;
59302;SDS011;45074;52.764;6.896;2023-06-10T02:10:27;11.48;;;6.72;;
59302;SDS011;45074;52.764;6.896;2023-06-10T02:12:53;10.75;;;7.10;;
59302;SDS011;45074;52.764;6.896;2023-06-10T02:15:20;12.35;;;6.90;;
59302;SDS011;45074;52.764;6.896;2023-06-10T02:17:46;11.93;;;7.20;;
59302;SDS011;45074;52.764;6.896;2023-06-10T02:20:14;11.85;;;6.88;;
59302;SDS011;45074;52.764;6.896;2023-06-10T02:22:40;11.50;;;6.47;;
59302;SDS011;45074;52.764;6.896;2023-06-10T02:25:06;11.02;;;6.80;;
59302;SDS011;45074;52.764;6.896;2023-06-10T02:27:32;13.27;;;7.03;;
59302;SDS011;45074;52.764;6.896;2023-06-10T02:29:58;13.35;;;7.30;;
59302;SDS011;45074;52.764;6.896;2023-06-10T02:32:24;11.57;;;6.47;;
59302;SDS011;45074;52.764;6.896;2023-06-10T02:34:50;12.25;;;7.45;;
59302;SDS011;45074;52.764;6.896;2023-06-10T02:37:16;11.27;;;6.93;;
59302;SDS011;45074;52.764;6.896;2023-06-10T02:39:43;12.98;;;6.82;;
59302;SDS011;45074;52.764;6.896;2023-06-10T02:42:09;13.63;;;7.18;;
59302;SDS011;45074;52.764;6.896;2023-06-10T02:44:35;11.80;;;6.93;;
59302;SDS011;45074;52.764;6.896;2023-06-10T02:47:01;13.43;;;7.20;;
59302;SDS011;45074;52.764;6.896;2023-06-10T02:49:28;14.48;;;7.13;;
59302;SDS011;45074;52.764;6.896;2023-06-10T02:51:54;15.00;;;7.10;;
59302;SDS011;45074;52.764;6.896;2023-06-10T02:54:21;11.93;;;6.80;;
59302;SDS011;45074;52.764;6.896;2023-06-10T02:56:48;11.18;;;6.85;;
59302;SDS011;45074;52.764;6.896;2023-06-10T02:59:14;14.02;;;6.68;;
59302;SDS011;45074;52.764;6.896;2023-06-10T03:01:40;12.10;;;6.63;;
59302;SDS011;45074;52.764;6.896;2023-06-10T03:04:07;11.68;;;6.70;;
59302;SDS011;45074;52.764;6.896;2023-06-10T03:06:34;12.88;;;6.72;;
59302;SDS011;45074;52.764;6.896;2023-06-10T03:09:00;12.93;;;6.65;;
59302;SDS011;45074;52.764;6.896;2023-06-10T03:11:26;11.05;;;6.00;;
59302;SDS011;45074;52.764;6.896;2023-06-10T03:13:52;11.85;;;6.40;;
59302;SDS011;45074;52.764;6.896;2023-06-10T03:16:19;12.77;;;6.72;;
59302;SDS011;45074;52.764;6.896;2023-06-10T03:18:45;12.38;;;6.63;;
59302;SDS011;45074;52.764;6.896;2023-06-10T03:21:11;11.07;;;6.60;;
59302;SDS011;45074;52.764;6.896;2023-06-10T03:23:37;11.98;;;6.90;;
59302;SDS011;45074;52.764;6.896;2023-06-10T03:26:03;11.20;;;6.70;;
59302;SDS011;45074;52.764;6.896;2023-06-10T03:28:30;11.82;;;6.43;;
59302;SDS011;45074;52.764;6.896;2023-06-10T03:30:56;13.48;;;7.20;;
59302;SDS011;45074;52.764;6.896;2023-06-10T03:33:22;11.60;;;6.60;;
59302;SDS011;45074;52.764;6.896;2023-06-10T03:35:48;13.18;;;6.88;;
59302;SDS011;45074;52.764;6.896;2023-06-10T03:38:14;12.48;;;6.93;;
59302;SDS011;45074;52.764;6.896;2023-06-10T03:40:41;11.30;;;6.63;;
59302;SDS011;45074;52.764;6.896;2023-06-10T03:43:07;13.38;;;7.03;;
59302;SDS011;45074;52.764;6.896;2023-06-10T03:45:33;11.02;;;6.57;;
59302;SDS011;45074;52.764;6.896;2023-06-10T03:48:01;12.88;;;6.72;;
59302;SDS011;45074;52.764;6.896;2023-06-10T03:50:27;12.93;;;7.00;;
59302;SDS011;45074;52.764;6.896;2023-06-10T03:52:53;14.63;;;6.57;;
59302;SDS011;45074;52.764;6.896;2023-06-10T03:55:19;12.38;;;6.80;;
59302;SDS011;45074;52.764;6.896;2023-06-10T03:57:47;12.50;;;6.68;;
59302;SDS011;45074;52.764;6.896;2023-06-10T04:00:13;13.68;;;6.63;;
59302;SDS011;45074;52.764;6.896;2023-06-10T04:02:40;12.38;;;6.10;;
59302;SDS011;45074;52.764;6.896;2023-06-10T04:05:11;11.52;;;6.30;;
59302;SDS011;45074;52.764;6.896;2023-06-10T04:07:37;11.48;;;6.38;;
59302;SDS011;45074;52.764;6.896;2023-06-10T04:10:06;11.55;;;6.65;;
59302;SDS011;45074;52.764;6.896;2023-06-10T04:12:32;12.18;;;6.65;;
59302;SDS011;45074;52.764;6.896;2023-06-10T04:14:58;12.90;;;6.47;;
59302;SDS011;45074;52.764;6.896;2023-06-10T04:17:25;13.75;;;6.95;;
59302;SDS011;45074;52.764;6.896;2023-06-10T04:19:51;13.40;;;6.63;;
59302;SDS011;45074;52.764;6.896;2023-06-10T04:22:19;13.85;;;7.28;;
59302;SDS011;45074;52.764;6.896;2023-06-10T04:24:45;10.45;;;5.85;;
59302;SDS011;45074;52.764;6.896;2023-06-10T04:27:11;12.10;;;6.80;;
59302;SDS011;45074;52.764;6.896;2023-06-10T04:29:37;12.68;;;6.63;;
59302;SDS011;45074;52.764;6.896;2023-06-10T04:32:04;11.00;;;6.40;;
59302;SDS011;45074;52.764;6.896;2023-06-10T04:34:32;12.68;;;6.75;;
59302;SDS011;45074;52.764;6.896;2023-06-10T04:37:04;11.55;;;6.22;;
59302;SDS011;45074;52.764;6.896;2023-06-10T04:39:30;12.52;;;6.60;;
59302;SDS011;45074;52.764;6.896;2023-06-10T04:41:57;11.30;;;6.30;;
59302;SDS011;45074;52.764;6.896;2023-06-10T04:44:23;12.95;;;6.55;;
59302;SDS011;45074;52.764;6.896;2023-06-10T04:46:49;10.27;;;6.35;;
59302;SDS011;45074;52.764;6.896;2023-06-10T04:49:15;11.90;;;6.60;;
59302;SDS011;45074;52.764;6.896;2023-06-10T04:51:41;13.30;;;6.75;;
59302;SDS011;45074;52.764;6.896;2023-06-10T04:54:07;12.60;;;6.60;;
59302;SDS011;45074;52.764;6.896;2023-06-10T04:56:33;12.02;;;6.43;;
59302;SDS011;45074;52.764;6.896;2023-06-10T04:58:59;13.10;;;7.05;;
59302;SDS011;45074;52.764;6.896;2023-06-10T05:01:25;13.30;;;6.80;;
59302;SDS011;45074;52.764;6.896;2023-06-10T05:03:52;13.88;;;7.20;;
59302;SDS011;45074;52.764;6.896;2023-06-10T05:06:18;11.18;;;6.53;;
59302;SDS011;45074;52.764;6.896;2023-06-10T05:08:44;12.65;;;6.57;;
59302;SDS011;45074;52.764;6.896;2023-06-10T05:11:10;13.18;;;6.90;;
59302;SDS011;45074;52.764;6.896;2023-06-10T05:13:36;11.45;;;6.75;;
59302;SDS011;45074;52.764;6.896;2023-06-10T05:16:05;12.27;;;6.75;;
59302;SDS011;45074;52.764;6.896;2023-06-10T05:18:31;14.02;;;6.82;;
59302;SDS011;45074;52.764;6.896;2023-06-10T05:20:57;13.68;;;7.38;;
59302;SDS011;45074;52.764;6.896;2023-06-10T05:23:23;12.65;;;6.60;;
59302;SDS011;45074;52.764;6.896;2023-06-10T05:25:49;13.55;;;6.93;;
59302;SDS011;45074;52.764;6.896;2023-06-10T05:28:15;12.32;;;6.80;;
59302;SDS011;45074;52.764;6.896;2023-06-10T05:30:41;12.05;;;6.70;;
59302;SDS011;45074;52.764;6.896;2023-06-10T05:33:07;11.15;;;7.10;;
59302;SDS011;45074;52.764;6.896;2023-06-10T05:35:33;13.90;;;6.85;;
59302;SDS011;45074;52.764;6.896;2023-06-10T05:38:00;11.57;;;6.53;;
59302;SDS011;45074;52.764;6.896;2023-06-10T05:40:26;12.02;;;6.72;;
59302;SDS011;45074;52.764;6.896;2023-06-10T05:42:52;11.93;;;6.65;;
59302;SDS011;45074;52.764;6.896;2023-06-10T05:45:18;11.73;;;6.63;;
59302;SDS011;45074;52.764;6.896;2023-06-10T05:47:44;13.60;;;6.93;;
59302;SDS011;45074;52.764;6.896;2023-06-10T05:50:10;10.93;;;6.35;;
59302;SDS011;45074;52.764;6.896;2023-06-10T05:52:36;10.30;;;6.32;;
59302;SDS011;45074;52.764;6.896;2023-06-10T05:55:02;13.20;;;6.85;;
59302;SDS011;45074;52.764;6.896;2023-06-10T05:57:28;11.57;;;6.10;;
59302;SDS011;45074;52.764;6.896;2023-06-10T05:59:54;10.85;;;6.25;;
59302;SDS011;45074;52.764;6.896;2023-06-10T06:02:20;10.77;;;5.75;;
59302;SDS011;45074;52.764;6.896;2023-06-10T06:04:47;13.23;;;6.00;;
59302;SDS011;45074;52.764;6.896;2023-06-10T06:07:13;11.00;;;6.25;;
59302;SDS011;45074;52.764;6.896;2023-06-10T06:09:38;11.35;;;6.18;;
59302;SDS011;45074;52.764;6.896;2023-06-10T06:12:05;9.82;;;5.88;;
59302;SDS011;45074;52.764;6.896;2023-06-10T06:14:32;11.02;;;5.85;;
59302;SDS011;45074;52.764;6.896;2023-06-10T06:16:58;13.00;;;6.20;;
59302;SDS011;45074;52.764;6.896;2023-06-10T06:19:24;12.10;;;6.03;;
59302;SDS011;45074;52.764;6.896;2023-06-10T06:21:50;10.57;;;5.78;;
59302;SDS011;45074;52.764;6.896;2023-06-10T06:24:16;10.02;;;5.88;;
59302;SDS011;45074;52.764;6.896;2023-06-10T06:26:42;10.05;;;5.68;;
59302;SDS011;45074;52.764;6.896;2023-06-10T06:29:08;11.02;;;5.97;;
59302;SDS011;45074;52.764;6.896;2023-06-10T06:31:34;11.32;;;6.13;;
59302;SDS011;45074;52.764;6.896;2023-06-10T06:34:00;10.95;;;6.18;;
59302;SDS011;45074;52.764;6.896;2023-06-10T06:36:26;10.30;;;5.80;;
59302;SDS011;45074;52.764;6.896;2023-06-10T06:38:52;10.55;;;6.00;;
59302;SDS011;45074;52.764;6.896;2023-06-10T06:41:18;10.88;;;5.50;;
59302;SDS011;45074;52.764;6.896;2023-06-10T06:43:44;11.05;;;5.93;;
59302;SDS011;45074;52.764;6.896;2023-06-10T06:46:10;11.68;;;6.00;;
59302;SDS011;45074;52.764;6.896;2023-06-10T06:48:36;11.30;;;5.55;;
59302;SDS011;45074;52.764;6.896;2023-06-10T06:51:02;11.40;;;6.13;;
59302;SDS011;45074;52.764;6.896;2023-06-10T06:53:28;10.52;;;5.88;;
59302;SDS011;45074;52.764;6.896;2023-06-10T06:55:54;10.50;;;5.63;;
59302;SDS011;45074;52.764;6.896;2023-06-10T06:58:20;10.18;;;5.57;;
59302;SDS011;45074;52.764;6.896;2023-06-10T07:00:46;10.52;;;5.60;;
59302;SDS011;45074;52.764;6.896;2023-06-10T07:03:12;11.95;;;5.78;;
59302;SDS011;45074;52.764;6.896;2023-06-10T07:05:38;10.25;;;6.57;;
59302;SDS011;45074;52.764;6.896;2023-06-10T07:08:04;10.90;;;5.82;;
59302;SDS011;45074;52.764;6.896;2023-06-10T07:10:30;9.10;;;5.22;;
59302;SDS011;45074;52.764;6.896;2023-06-10T07:12:56;9.57;;;5.78;;
59302;SDS011;45074;52.764;6.896;2023-06-10T07:15:21;10.05;;;5.57;;
59302;SDS011;45074;52.764;6.896;2023-06-10T07:17:47;11.30;;;5.90;;
59302;SDS011;45074;52.764;6.896;2023-06-10T07:20:13;11.93;;;6.00;;
59302;SDS011;45074;52.764;6.896;2023-06-10T07:22:40;11.25;;;5.32;;
59302;SDS011;45074;52.764;6.896;2023-06-10T07:25:06;9.95;;;5.20;;
59302;SDS011;45074;52.764;6.896;2023-06-10T07:27:32;11.63;;;5.70;;
59302;SDS011;45074;52.764;6.896;2023-06-10T07:29:58;11.10;;;5.65;;
59302;SDS011;45074;52.764;6.896;2023-06-10T07:32:25;10.02;;;6.00;;
59302;SDS011;45074;52.764;6.896;2023-06-10T07:34:51;10.95;;;6.03;;
59302;SDS011;45074;52.764;6.896;2023-06-10T07:37:17;12.50;;;6.63;;
59302;SDS011;45074;52.764;6.896;2023-06-10T07:39:44;11.65;;;6.20;;
59302;SDS011;45074;52.764;6.896;2023-06-10T07:42:10;11.27;;;5.95;;
59302;SDS011;45074;52.764;6.896;2023-06-10T07:44:36;10.88;;;5.40;;
59302;SDS011;45074;52.764;6.896;2023-06-10T07:47:01;12.15;;;5.88;;
59302;SDS011;45074;52.764;6.896;2023-06-10T07:49:27;9.57;;;5.85;;
59302;SDS011;45074;52.764;6.896;2023-06-10T07:51:54;11.70;;;6.10;;
59302;SDS011;45074;52.764;6.896;2023-06-10T07:54:20;12.63;;;6.78;;
59302;SDS011;45074;52.764;6.896;2023-06-10T07:56:46;10.77;;;6.78;;
59302;SDS011;45074;52.764;6.896;2023-06-10T07:59:13;10.85;;;6.82;;
59302;SDS011;45074;52.764;6.896;2023-06-10T08:01:39;12.45;;;5.85;;
59302;SDS011;45074;52.764;6.896;2023-06-10T08:04:05;13.40;;;7.35;;
59302;SDS011;45074;52.764;6.896;2023-06-10T08:06:32;11.57;;;7.93;;
59302;SDS011;45074;52.764;6.896;2023-06-10T08:08:58;15.23;;;7.43;;
59302;SDS011;45074;52.764;6.896;2023-06-10T08:11:25;12.00;;;7.13;;
59302;SDS011;45074;52.764;6.896;2023-06-10T08:13:54;12.05;;;8.43;;
59302;SDS011;45074;52.764;6.896;2023-06-10T08:16:20;11.75;;;8.10;;
59302;SDS011;45074;52.764;6.896;2023-06-10T08:18:46;11.85;;;8.13;;
59302;SDS011;45074;52.764;6.896;2023-06-10T08:21:12;11.63;;;8.52;;
59302;SDS011;45074;52.764;6.896;2023-06-10T08:23:38;14.52;;;8.52;;
59302;SDS011;45074;52.764;6.896;2023-06-10T08:26:04;12.70;;;8.40;;
59302;SDS011;45074;52.764;6.896;2023-06-10T08:28:29;11.00;;;7.78;;
59302;SDS011;45074;52.764;6.896;2023-06-10T08:30:55;14.70;;;8.75;;
59302;SDS011;45074;52.764;6.896;2023-06-10T08:33:21;12.73;;;8.70;;
59302;SDS011;45074;52.764;6.896;2023-06-10T08:35:47;12.68;;;9.20;;
59302;SDS011;45074;52.764;6.896;2023-06-10T08:38:13;14.85;;;9.00;;
59302;SDS011;45074;52.764;6.896;2023-06-10T08:40:39;12.32;;;7.95;;
59302;SDS011;45074;52.764;6.896;2023-06-10T08:45:31;11.27;;;8.07;;
59302;SDS011;45074;52.764;6.896;2023-06-10T08:48:00;10.90;;;7.80;;
59302;SDS011;45074;52.764;6.896;2023-06-10T08:50:31;11.40;;;8.32;;
59302;SDS011;45074;52.764;6.896;2023-06-10T08:53:03;12.65;;;8.30;;
59302;SDS011;45074;52.764;6.896;2023-06-10T08:55:35;10.15;;;7.45;;
59302;SDS011;45074;52.764;6.896;2023-06-10T08:58:02;11.90;;;7.35;;
59302;SDS011;45074;52.764;6.896;2023-06-10T09:00:29;11.27;;;8.30;;
59302;SDS011;45074;52.764;6.896;2023-06-10T09:02:56;11.98;;;7.53;;
59302;SDS011;45074;52.764;6.896;2023-06-10T09:05:22;11.55;;;8.30;;
59302;SDS011;45074;52.764;6.896;2023-06-10T09:07:48;12.48;;;7.63;;
59302;SDS011;45074;52.764;6.896;2023-06-10T09:10:15;10.23;;;7.15;;
59302;SDS011;45074;52.764;6.896;2023-06-10T09:12:41;10.13;;;7.45;;
59302;SDS011;45074;52.764;6.896;2023-06-10T09:15:08;10.00;;;7.03;;
59302;SDS011;45074;52.764;6.896;2023-06-10T09:17:34;9.75;;;6.40;;
59302;SDS011;45074;52.764;6.896;2023-06-10T09:20:05;10.15;;;6.60;;
59302;SDS011;45074;52.764;6.896;2023-06-10T09:22:32;8.77;;;6.47;;
59302;SDS011;45074;52.764;6.896;2023-06-10T09:25:05;9.50;;;6.50;;
59302;SDS011;45074;52.764;6.896;2023-06-10T09:30:27;9.13;;;5.85;;
59302;SDS011;45074;52.764;6.896;2023-06-10T09:32:53;8.38;;;5.88;;
59302;SDS011;45074;52.764;6.896;2023-06-10T09:35:23;9.65;;;5.95;;
59302;SDS011;45074;52.764;6.896;2023-06-10T09:37:51;10.25;;;5.75;;
59302;SDS011;45074;52.764;6.896;2023-06-10T09:40:17;10.48;;;6.03;;
59302;SDS011;45074;52.764;6.896;2023-06-10T09:42:43;7.32;;;5.35;;
59302;SDS011;45074;52.764;6.896;2023-06-10T09:45:09;8.93;;;5.70;;
59302;SDS011;45074;52.764;6.896;2023-06-10T09:47:35;8.32;;;5.53;;
59302;SDS011;45074;52.764;6.896;2023-06-10T09:50:02;9.90;;;5.50;;
59302;SDS011;45074;52.764;6.896;2023-06-10T09:52:28;7.97;;;5.05;;
59302;SDS011;45074;52.764;6.896;2023-06-10T09:54:59;7.75;;;4.97;;
59302;SDS011;45074;52.764;6.896;2023-06-10T09:57:26;9.32;;;5.30;;
59302;SDS011;45074;52.764;6.896;2023-06-10T09:59:57;7.95;;;4.72;;
59302;SDS011;45074;52.764;6.896;2023-06-10T10:02:23;7.85;;;4.72;;
59302;SDS011;45074;52.764;6.896;2023-06-10T10:04:49;6.93;;;4.63;;
59302;SDS011;45074;52.764;6.896;2023-06-10T10:07:15;7.32;;;4.93;;
59302;SDS011;45074;52.764;6.896;2023-06-10T10:09:42;7.43;;;4.28;;
59302;SDS011;45074;52.764;6.896;2023-06-10T10:12:12;7.65;;;4.20;;
59302;SDS011;45074;52.764;6.896;2023-06-10T10:17:04;8.15;;;4.28;;
59302;SDS011;45074;52.764;6.896;2023-06-10T10:19:32;6.50;;;3.85;;
59302;SDS011;45074;52.764;6.896;2023-06-10T10:22:02;6.47;;;3.88;;
59302;SDS011;45074;52.764;6.896;2023-06-10T10:24:33;7.35;;;4.20;;
59302;SDS011;45074;52.764;6.896;2023-06-10T10:27:01;6.47;;;3.63;;
59302;SDS011;45074;52.764;6.896;2023-06-10T10:29:33;5.80;;;3.63;;
59302;SDS011;45074;52.764;6.896;2023-06-10T10:32:02;7.28;;;4.00;;
59302;SDS011;45074;52.764;6.896;2023-06-10T10:36:58;7.40;;;3.83;;
59302;SDS011;45074;52.764;6.896;2023-06-10T10:39:24;8.65;;;4.18;;
59302;SDS011;45074;52.764;6.896;2023-06-10T10:41:53;6.68;;;3.80;;
59302;SDS011;45074;52.764;6.896;2023-06-10T10:44:20;7.10;;;3.70;;
59302;SDS011;45074;52.764;6.896;2023-06-10T10:46:50;6.45;;;3.47;;
59302;SDS011;45074;52.764;6.896;2023-06-10T10:49:19;6.70;;;3.55;;
59302;SDS011;45074;52.764;6.896;2023-06-10T10:51:58;8.10;;;3.72;;
59302;SDS011;45074;52.764;6.896;2023-06-10T10:54:31;6.90;;;3.40;;
59302;SDS011;45074;52.764;6.896;2023-06-10T10:57:11;6.50;;;3.47;;
59302;SDS011;45074;52.764;6.896;2023-06-10T11:05:05;6.38;;;3.20;;
59302;SDS011;45074;52.764;6.896;2023-06-10T11:07:32;6.88;;;3.20;;
59302;SDS011;45074;52.764;6.896;2023-06-10T11:10:00;6.60;;;3.47;;
59302;SDS011;45074;52.764;6.896;2023-06-10T11:12:40;5.80;;;3.20;;
59302;SDS011;45074;52.764;6.896;2023-06-10T11:15:06;5.78;;;3.22;;
59302;SDS011;45074;52.764;6.896;2023-06-10T11:17:32;5.15;;;3.10;;
59302;SDS011;45074;52.764;6.896;2023-06-10T11:19:58;6.70;;;3.28;;
59302;SDS011;45074;52.764;6.896;2023-06-10T11:22:25;6.82;;;2.70;;
59302;SDS011;45074;52.764;6.896;2023-06-10T11:24:51;7.20;;;3.22;;
59302;SDS011;45074;52.764;6.896;2023-06-10T11:27:23;5.13;;;2.85;;
59302;SDS011;45074;52.764;6.896;2023-06-10T11:32:34;5.30;;;3.13;;
59302;SDS011;45074;52.764;6.896;2023-06-10T11:35:03;5.27;;;2.83;;
59302;SDS011;45074;52.764;6.896;2023-06-10T11:37:30;7.50;;;3.08;;
59302;SDS011;45074;52.764;6.896;2023-06-10T11:39:56;4.35;;;2.60;;
59302;SDS011;45074;52.764;6.896;2023-06-10T11:42:22;5.47;;;2.90;;
59302;SDS011;45074;52.764;6.896;2023-06-10T11:44:52;4.75;;;2.80;;
59302;SDS011;45074;52.764;6.896;2023-06-10T11:47:18;6.90;;;3.10;;
59302;SDS011;45074;52.764;6.896;2023-06-10T11:49:45;5.30;;;3.15;;
59302;SDS011;45074;52.764;6.896;2023-06-10T11:52:12;6.25;;;3.08;;
59302;SDS011;45074;52.764;6.896;2023-06-10T11:54:38;5.22;;;2.88;;
59302;SDS011;45074;52.764;6.896;2023-06-10T11:57:04;5.85;;;2.90;;
59302;SDS011;45074;52.764;6.896;2023-06-10T11:59:33;5.88;;;2.88;;
59302;SDS011;45074;52.764;6.896;2023-06-10T12:01:59;6.75;;;3.00;;
59302;SDS011;45074;52.764;6.896;2023-06-10T12:04:25;4.55;;;2.67;;
59302;SDS011;45074;52.764;6.896;2023-06-10T12:06:52;5.20;;;3.20;;
59302;SDS011;45074;52.764;6.896;2023-06-10T12:09:19;6.72;;;3.47;;
59302;SDS011;45074;52.764;6.896;2023-06-10T12:11:48;5.05;;;3.03;;
59302;SDS011;45074;52.764;6.896;2023-06-10T12:14:14;5.35;;;2.70;;
59302;SDS011;45074;52.764;6.896;2023-06-10T12:16:47;5.38;;;3.08;;
59302;SDS011;45074;52.764;6.896;2023-06-10T12:19:13;6.40;;;3.30;;
59302;SDS011;45074;52.764;6.896;2023-06-10T12:21:39;5.57;;;3.03;;
59302;SDS011;45074;52.764;6.896;2023-06-10T12:24:07;5.45;;;3.05;;
59302;SDS011;45074;52.764;6.896;2023-06-10T12:26:34;6.07;;;2.90;;
59302;SDS011;45074;52.764;6.896;2023-06-10T12:29:01;6.47;;;3.20;;
59302;SDS011;45074;52.764;6.896;2023-06-10T12:31:27;6.30;;;2.97;;
59302;SDS011;45074;52.764;6.896;2023-06-10T12:34:09;4.50;;;2.70;;
59302;SDS011;45074;52.764;6.896;2023-06-10T12:36:35;5.32;;;2.85;;
59302;SDS011;45074;52.764;6.896;2023-06-10T12:39:04;4.53;;;2.83;;
59302;SDS011;45074;52.764;6.896;2023-06-10T12:41:30;5.35;;;3.13;;
59302;SDS011;45074;52.764;6.896;2023-06-10T12:43:59;5.28;;;2.80;;
59302;SDS011;45074;52.764;6.896;2023-06-10T12:46:25;5.15;;;3.08;;
59302;SDS011;45074;52.764;6.896;2023-06-10T12:48:51;5.20;;;3.20;;
59302;SDS011;45074;52.764;6.896;2023-06-10T12:51:17;6.75;;;3.33;;
59302;SDS011;45074;52.764;6.896;2023-06-10T12:53:43;4.68;;;3.05;;
59302;SDS011;45074;52.764;6.896;2023-06-10T12:56:09;6.55;;;3.20;;
59302;SDS011;45074;52.764;6.896;2023-06-10T12:58:35;4.82;;;2.97;;
59302;SDS011;45074;52.764;6.896;2023-06-10T13:01:01;4.82;;;3.05;;
59302;SDS011;45074;52.764;6.896;2023-06-10T13:03:27;6.22;;;3.17;;
59302;SDS011;45074;52.764;6.896;2023-06-10T13:05:53;6.55;;;3.28;;
59302;SDS011;45074;52.764;6.896;2023-06-10T13:08:20;7.72;;;3.15;;
59302;SDS011;45074;52.764;6.896;2023-06-10T13:10:46;5.28;;;3.40;;
59302;SDS011;45074;52.764;6.896;2023-06-10T13:13:13;6.05;;;3.40;;
59302;SDS011;45074;52.764;6.896;2023-06-10T13:15:39;6.30;;;3.45;;
59302;SDS011;45074;52.764;6.896;2023-06-10T13:18:06;5.90;;;3.35;;
59302;SDS011;45074;52.764;6.896;2023-06-10T13:20:32;6.00;;;3.42;;
59302;SDS011;45074;52.764;6.896;2023-06-10T13:22:58;5.57;;;3.30;;
59302;SDS011;45074;52.764;6.896;2023-06-10T13:25:24;4.68;;;3.10;;
59302;SDS011;45074;52.764;6.896;2023-06-10T13:27:50;5.72;;;3.17;;
59302;SDS011;45074;52.764;6.896;2023-06-10T13:30:16;5.43;;;3.20;;
59302;SDS011;45074;52.764;6.896;2023-06-10T13:32:42;6.43;;;3.55;;
59302;SDS011;45074;52.764;6.896;2023-06-10T13:35:08;5.50;;;3.10;;
59302;SDS011;45074;52.764;6.896;2023-06-10T13:37:35;6.15;;;3.90;;
59302;SDS011;45074;52.764;6.896;2023-06-10T13:40:02;6.53;;;3.60;;
59302;SDS011;45074;52.764;6.896;2023-06-10T13:42:28;5.75;;;3.58;;
59302;SDS011;45074;52.764;6.896;2023-06-10T13:44:55;5.40;;;3.38;;
59302;SDS011;45074;52.764;6.896;2023-06-10T13:47:24;5.93;;;3.92;;
59302;SDS011;45074;52.764;6.896;2023-06-10T13:49:50;6.68;;;3.90;;
59302;SDS011;45074;52.764;6.896;2023-06-10T13:52:16;8.40;;;4.30;;
59302;SDS011;45074;52.764;6.896;2023-06-10T13:54:43;6.75;;;4.07;;
59302;SDS011;45074;52.764;6.896;2023-06-10T13:57:09;6.65;;;3.83;;
59302;SDS011;45074;52.764;6.896;2023-06-10T13:59:36;5.78;;;3.80;;
59302;SDS011;45074;52.764;6.896;2023-06-10T14:02:02;6.53;;;4.15;;
59302;SDS011;45074;52.764;6.896;2023-06-10T14:04:28;8.00;;;4.40;;
59302;SDS011;45074;52.764;6.896;2023-06-10T14:06:54;7.07;;;4.25;;
59302;SDS011;45074;52.764;6.896;2023-06-10T14:09:21;7.40;;;4.00;;
59302;SDS011;45074;52.764;6.896;2023-06-10T14:11:48;5.25;;;3.70;;
59302;SDS011;45074;52.764;6.896;2023-06-10T14:14:14;6.63;;;4.03;;
59302;SDS011;45074;52.764;6.896;2023-06-10T14:16:40;6.03;;;3.58;;
59302;SDS011;45074;52.764;6.896;2023-06-10T14:19:06;5.95;;;3.50;;
59302;SDS011;45074;52.764;6.896;2023-06-10T14:21:32;6.28;;;3.60;;
59302;SDS011;45074;52.764;6.896;2023-06-10T14:23:58;5.75;;;3.40;;
59302;SDS011;45074;52.764;6.896;2023-06-10T14:26:24;5.80;;;3.58;;
59302;SDS011;45074;52.764;6.896;2023-06-10T14:28:51;6.20;;;3.78;;
59302;SDS011;45074;52.764;6.896;2023-06-10T14:31:17;6.18;;;3.53;;
59302;SDS011;45074;52.764;6.896;2023-06-10T14:33:43;6.53;;;3.70;;
59302;SDS011;45074;52.764;6.896;2023-06-10T14:36:10;5.30;;;3.33;;
59302;SDS011;45074;52.764;6.896;2023-06-10T14:38:36;6.40;;;3.55;;
59302;SDS011;45074;52.764;6.896;2023-06-10T14:41:02;6.50;;;3.63;;
59302;SDS011;45074;52.764;6.896;2023-06-10T14:43:28;7.13;;;4.90;;
59302;SDS011;45074;52.764;6.896;2023-06-10T14:45:54;5.70;;;3.50;;
59302;SDS011;45074;52.764;6.896;2023-06-10T14:48:21;5.22;;;3.30;;
59302;SDS011;45074;52.764;6.896;2023-06-10T14:50:47;6.05;;;3.35;;
59302;SDS011;45074;52.764;6.896;2023-06-10T14:53:16;5.90;;;3.35;;
59302;SDS011;45074;52.764;6.896;2023-06-10T14:55:42;5.65;;;3.47;;
59302;SDS011;45074;52.764;6.896;2023-06-10T14:58:08;5.93;;;3.50;;
59302;SDS011;45074;52.764;6.896;2023-06-10T15:00:34;5.82;;;3.20;;